createdAt,value
2023-05-04T00:00:47.654Z,13.40
2023-05-04T00:03:16.360Z,17.37
2023-05-04T00:05:43.843Z,15.73
2023-05-04T00:08:11.647Z,15.20
2023-05-04T00:10:39.302Z,16.80
2023-05-04T00:13:06.898Z,16.42
2023-05-04T00:15:34.392Z,15.55
2023-05-04T00:18:02.221Z,14.10
2023-05-04T00:20:29.614Z,16.77
2023-05-04T00:22:56.981Z,14.48
2023-05-04T00:25:24.632Z,16.37
2023-05-04T00:27:53.510Z,16.05
2023-05-04T00:30:20.926Z,14.30
2023-05-04T00:32:48.737Z,15.77
2023-05-04T00:35:16.363Z,14.77
2023-05-04T00:37:45.206Z,16.33
2023-05-04T00:40:13.046Z,15.60
2023-05-04T00:42:40.389Z,14.00
2023-05-04T00:45:08.154Z,14.75
2023-05-04T00:47:36.169Z,14.27
2023-05-04T00:50:04.788Z,15.35
2023-05-04T00:52:32.521Z,15.07
2023-05-04T00:55:01.464Z,14.52
2023-05-04T00:57:28.938Z,13.50
2023-05-04T00:59:56.582Z,14.00
2023-05-04T01:02:26.588Z,13.43
2023-05-04T01:04:53.979Z,16.08
2023-05-04T01:08:06.295Z,12.90
2023-05-04T01:10:54.369Z,14.38
2023-05-04T01:13:22.155Z,11.93
2023-05-04T01:15:49.810Z,13.45
2023-05-04T01:18:17.198Z,12.65
2023-05-04T01:20:44.602Z,11.68
2023-05-04T01:23:12.420Z,11.75
2023-05-04T01:25:50.868Z,15.30
2023-05-04T01:28:26.873Z,11.98
2023-05-04T01:30:56.453Z,11.52
2023-05-04T01:33:24.234Z,12.80
2023-05-04T01:35:51.727Z,11.75
2023-05-04T01:38:19.096Z,11.93
2023-05-04T01:40:46.780Z,10.80
2023-05-04T01:43:14.201Z,10.23
2023-05-04T01:45:41.865Z,10.32
2023-05-04T01:48:09.659Z,10.77
2023-05-04T01:50:37.111Z,11.60
2023-05-04T01:53:04.509Z,10.77
2023-05-04T01:55:33.040Z,12.02
2023-05-04T01:58:00.623Z,10.27
2023-05-04T02:00:28.227Z,10.63
2023-05-04T02:02:56.112Z,11.38
2023-05-04T02:05:23.704Z,11.32
2023-05-04T02:07:53.604Z,13.00
2023-05-04T02:10:21.616Z,12.23
2023-05-04T02:12:49.088Z,13.93
2023-05-04T02:15:16.484Z,13.60
2023-05-04T02:17:44.227Z,10.20
2023-05-04T02:20:13.055Z,13.85
2023-05-04T02:22:42.315Z,11.48
2023-05-04T02:25:10.053Z,13.77
2023-05-04T02:27:37.462Z,11.55
2023-05-04T02:30:05.701Z,10.98
2023-05-04T02:32:33.677Z,10.02
2023-05-04T02:35:01.083Z,10.75
2023-05-04T02:37:29.455Z,10.60
2023-05-04T02:39:57.016Z,10.40
2023-05-04T02:42:24.405Z,12.80
2023-05-04T02:44:52.017Z,14.87
2023-05-04T02:47:20.792Z,16.10
2023-05-04T02:49:48.148Z,15.07
2023-05-04T02:52:15.855Z,17.15
2023-05-04T02:54:43.214Z,12.55
2023-05-04T02:57:11.035Z,15.98
2023-05-04T02:59:39.210Z,15.73
2023-05-04T03:02:07.625Z,14.30
2023-05-04T03:04:35.034Z,13.43
2023-05-04T03:07:02.759Z,12.90
2023-05-04T03:09:30.134Z,12.25
2023-05-04T03:11:57.558Z,12.68
2023-05-04T03:14:25.284Z,12.55
2023-05-04T03:16:52.897Z,12.77
2023-05-04T03:19:22.032Z,14.43
2023-05-04T03:21:51.994Z,13.80
2023-05-04T03:24:19.470Z,12.73
2023-05-04T03:26:47.755Z,13.35
2023-05-04T03:29:15.839Z,13.52
2023-05-04T03:31:43.399Z,16.80
2023-05-04T03:34:12.800Z,14.13
2023-05-04T03:36:40.824Z,13.50
2023-05-04T03:39:08.232Z,14.20
2023-05-04T03:41:36.732Z,15.80
2023-05-04T03:44:04.529Z,15.52
2023-05-04T03:46:31.976Z,17.98
2023-05-04T03:48:59.364Z,16.15
2023-05-04T03:51:27.514Z,18.67
2023-05-04T03:53:54.902Z,19.83
2023-05-04T03:56:23.354Z,19.20
2023-05-04T03:58:51.133Z,19.73
2023-05-04T04:01:19.985Z,21.73
2023-05-04T04:03:47.765Z,18.83
2023-05-04T04:06:15.901Z,22.37
2023-05-04T04:08:43.269Z,18.17
2023-05-04T04:11:10.925Z,18.98
2023-05-04T04:13:38.339Z,18.83
2023-05-04T04:16:06.734Z,20.85
2023-05-04T04:18:34.657Z,20.80
2023-05-04T04:21:02.055Z,18.83
2023-05-04T04:23:29.419Z,23.85
2023-05-04T04:25:57.157Z,20.90
2023-05-04T04:28:24.554Z,20.83
2023-05-04T04:30:51.993Z,21.75
2023-05-04T04:33:19.660Z,19.55
2023-05-04T04:35:47.458Z,17.17
2023-05-04T04:38:14.870Z,16.85
2023-05-04T04:40:42.815Z,17.05
2023-05-04T04:43:11.312Z,18.30
2023-05-04T04:45:41.120Z,17.48
2023-05-04T04:48:08.828Z,19.25
2023-05-04T04:50:39.169Z,16.50
2023-05-04T04:53:06.543Z,16.80
2023-05-04T04:55:34.889Z,16.15
2023-05-04T04:58:02.271Z,17.92
2023-05-04T05:00:30.027Z,15.10
2023-05-04T05:02:57.652Z,14.35
2023-05-04T05:05:25.109Z,14.87
2023-05-04T05:07:53.018Z,13.32
2023-05-04T05:10:23.951Z,19.17
2023-05-04T05:12:51.397Z,12.23
2023-05-04T05:15:18.927Z,10.40
2023-05-04T05:17:46.748Z,10.48
2023-05-04T05:20:15.268Z,10.48
2023-05-04T05:22:43.088Z,11.57
2023-05-04T05:25:10.914Z,9.15
2023-05-04T05:27:38.317Z,8.77
2023-05-04T05:30:06.741Z,8.82
2023-05-04T05:32:34.810Z,7.40
2023-05-04T05:35:02.693Z,7.95
2023-05-04T05:37:30.710Z,6.80
2023-05-04T05:39:59.752Z,7.22
2023-05-04T05:42:29.482Z,6.80
2023-05-04T05:44:58.171Z,6.78
2023-05-04T05:47:25.874Z,7.30
2023-05-04T05:49:53.409Z,6.80
2023-05-04T05:52:20.941Z,6.03
2023-05-04T05:54:48.749Z,6.15
2023-05-04T05:57:16.409Z,6.85
2023-05-04T05:59:44.758Z,5.55
2023-05-04T06:02:14.917Z,5.82
2023-05-04T06:04:43.336Z,6.50
2023-05-04T06:07:10.852Z,6.03
2023-05-04T06:09:38.251Z,6.87
2023-05-04T06:12:07.238Z,5.65
2023-05-04T06:14:34.611Z,7.50
2023-05-04T06:17:01.964Z,6.10
2023-05-04T06:19:31.588Z,5.03
2023-05-04T06:21:59.022Z,3.75
2023-05-04T06:24:27.138Z,5.30
2023-05-04T06:26:55.159Z,5.32
2023-05-04T06:29:22.733Z,5.78
2023-05-04T06:31:50.211Z,5.62
2023-05-04T06:34:18.012Z,4.93
2023-05-04T06:36:45.525Z,4.75
2023-05-04T06:39:13.030Z,4.22
2023-05-04T06:41:40.856Z,4.10
2023-05-04T06:44:08.620Z,4.82
2023-05-04T06:46:39.241Z,4.22
2023-05-04T06:49:06.878Z,4.25
2023-05-04T06:51:37.666Z,4.18
2023-05-04T06:54:05.212Z,6.07
2023-05-04T06:56:32.946Z,7.43
2023-05-04T06:59:00.493Z,6.18
2023-05-04T07:01:27.889Z,4.70
2023-05-04T07:03:58.366Z,6.82
2023-05-04T07:06:27.229Z,4.68
2023-05-04T07:08:54.648Z,5.00
2023-05-04T07:11:22.325Z,6.07
2023-05-04T07:13:49.953Z,5.12
2023-05-04T07:16:17.368Z,4.85
2023-05-04T07:37:46.431Z,5.35
2023-05-04T07:40:14.900Z,6.00
2023-05-04T07:42:42.277Z,5.07
2023-05-04T07:45:10.538Z,7.18
2023-05-04T07:47:38.273Z,5.28
2023-05-04T07:50:06.302Z,5.70
2023-05-04T07:52:33.857Z,5.30
2023-05-04T07:55:01.500Z,5.65
2023-05-04T07:57:28.848Z,5.22
2023-05-04T07:59:56.265Z,5.10
2023-05-04T08:02:24.114Z,5.85
2023-05-04T08:04:51.874Z,5.57
2023-05-04T08:07:20.608Z,6.68
2023-05-04T08:09:48.168Z,5.35
2023-05-04T08:12:15.864Z,7.62
2023-05-04T08:14:46.985Z,4.50
2023-05-04T08:17:14.350Z,5.50
2023-05-04T08:19:41.965Z,5.72
2023-05-04T08:22:09.492Z,8.48
2023-05-04T08:24:37.142Z,5.57
2023-05-04T08:27:08.677Z,4.32
2023-05-04T08:29:37.682Z,6.00
2023-05-04T08:32:06.174Z,4.93
2023-05-04T08:34:33.786Z,6.25
2023-05-04T08:37:02.377Z,6.97
2023-05-04T08:39:30.586Z,5.25
2023-05-04T08:41:58.074Z,8.43
2023-05-04T08:44:25.706Z,5.62
2023-05-04T08:46:53.822Z,6.20
2023-05-04T08:49:22.789Z,5.90
2023-05-04T08:51:50.752Z,5.30
2023-05-04T08:54:18.938Z,9.55
2023-05-04T08:56:47.198Z,6.00
2023-05-04T08:59:22.033Z,4.62
2023-05-04T09:01:52.099Z,5.35
2023-05-04T09:04:20.751Z,4.62
2023-05-04T09:06:48.368Z,6.97
2023-05-04T09:09:16.289Z,6.22
2023-05-04T09:11:43.759Z,6.35
2023-05-04T09:14:11.378Z,6.82
2023-05-04T09:16:39.163Z,7.47
2023-05-04T09:19:17.806Z,5.85
2023-05-04T09:21:47.108Z,5.53
2023-05-04T09:24:14.585Z,6.70
2023-05-04T09:26:41.965Z,8.35
2023-05-04T09:29:14.051Z,6.30
2023-05-04T09:31:52.209Z,8.40
2023-05-04T09:34:21.464Z,8.93
2023-05-04T09:37:02.612Z,6.03
2023-05-04T09:39:30.707Z,7.55
2023-05-04T09:41:58.137Z,8.15
2023-05-04T09:44:28.224Z,6.87
2023-05-04T09:46:59.837Z,6.05
2023-05-04T09:49:38.999Z,6.80
2023-05-04T09:52:07.079Z,10.63
2023-05-04T09:54:36.225Z,5.37
2023-05-04T09:57:14.614Z,5.57
2023-05-04T09:59:42.440Z,5.00
2023-05-04T10:02:21.997Z,7.30
2023-05-04T10:04:52.174Z,6.85
2023-05-04T10:07:20.771Z,6.47
2023-05-04T10:09:49.157Z,7.65
2023-05-04T10:12:16.970Z,8.95
2023-05-04T10:14:46.994Z,7.85
2023-05-04T10:17:20.711Z,8.93
2023-05-04T10:20:19.646Z,8.27
2023-05-04T10:22:52.687Z,10.20
2023-05-04T10:25:50.044Z,8.57
2023-05-04T10:28:29.484Z,7.70
2023-05-04T10:30:58.366Z,11.63
2023-05-04T10:33:26.753Z,11.18
2023-05-04T10:35:54.742Z,8.75
2023-05-04T10:38:33.217Z,8.95
2023-05-04T10:41:00.594Z,8.90
2023-05-04T10:43:32.603Z,7.97
2023-05-04T10:46:02.165Z,7.75
2023-05-04T10:48:35.114Z,10.07
2023-05-04T10:51:02.506Z,7.87
2023-05-04T10:53:33.971Z,8.57
2023-05-04T10:56:01.334Z,7.97
2023-05-04T10:58:29.126Z,9.10
2023-05-04T11:00:56.982Z,6.30
2023-05-04T11:03:25.094Z,8.23
2023-05-04T11:05:54.682Z,7.50
2023-05-04T11:08:24.665Z,8.13
2023-05-04T11:11:03.381Z,6.28
2023-05-04T11:13:33.846Z,6.75
2023-05-04T11:16:01.749Z,8.10
2023-05-04T11:18:34.415Z,7.25
2023-05-04T11:21:02.588Z,6.80
2023-05-04T11:23:30.760Z,9.88
2023-05-04T11:25:58.153Z,7.37
2023-05-04T11:28:36.174Z,8.02
2023-05-04T11:31:17.193Z,6.82
2023-05-04T11:33:46.366Z,6.30
2023-05-04T11:36:14.028Z,8.13
2023-05-04T11:38:41.769Z,7.03
2023-05-04T11:41:10.130Z,10.43
2023-05-04T11:43:38.162Z,11.65
2023-05-04T11:46:06.662Z,11.40
2023-05-04T11:48:35.563Z,11.10
2023-05-04T11:51:03.792Z,10.05
2023-05-04T11:53:38.706Z,8.23
2023-05-04T11:56:08.993Z,10.88
2023-05-04T11:58:37.013Z,8.30
2023-05-04T12:01:04.738Z,10.15
2023-05-04T12:03:53.183Z,12.80
2023-05-04T12:06:32.610Z,10.07
2023-05-04T12:09:05.969Z,8.05
2023-05-04T12:11:34.878Z,11.43
2023-05-04T12:14:05.125Z,10.75
2023-05-04T12:16:33.493Z,10.20
2023-05-04T12:19:12.726Z,11.20
2023-05-04T12:21:54.422Z,10.02
2023-05-04T12:24:23.551Z,10.90
2023-05-04T12:26:51.604Z,14.57
2023-05-04T12:29:19.188Z,12.57
2023-05-04T12:31:47.685Z,10.45
2023-05-04T12:34:15.580Z,11.82
2023-05-04T12:36:44.492Z,14.20
2023-05-04T12:39:11.979Z,10.63
2023-05-04T12:41:40.207Z,10.18
2023-05-04T12:44:09.185Z,9.15
2023-05-04T12:46:37.427Z,10.43
2023-05-04T12:49:06.336Z,9.48
2023-05-04T12:51:33.750Z,14.30
2023-05-04T12:54:01.203Z,15.25
2023-05-04T12:56:28.963Z,10.63
2023-05-04T12:58:56.523Z,15.38
2023-05-04T13:01:24.050Z,11.82
2023-05-04T13:03:51.956Z,10.02
2023-05-04T13:06:19.875Z,9.95
2023-05-04T13:08:47.395Z,10.73
2023-05-04T13:11:19.180Z,9.40
2023-05-04T13:13:46.590Z,9.18
2023-05-04T13:16:14.212Z,10.23
2023-05-04T13:18:43.374Z,8.80
2023-05-04T13:21:11.481Z,9.55
2023-05-04T13:23:38.860Z,12.27
2023-05-04T13:26:06.686Z,10.07
2023-05-04T13:28:34.065Z,10.93
2023-05-04T13:31:01.691Z,11.38
2023-05-04T13:33:30.766Z,9.35
2023-05-04T13:35:59.097Z,11.15
2023-05-04T13:38:27.027Z,12.25
2023-05-04T13:40:55.577Z,9.98
2023-05-04T13:43:23.128Z,12.02
2023-05-04T13:45:50.880Z,10.05
2023-05-04T13:48:18.776Z,11.95
2023-05-04T13:50:46.165Z,11.10
2023-05-04T13:53:13.652Z,11.45
2023-05-04T13:55:41.418Z,11.60
2023-05-04T13:58:08.881Z,10.07
2023-05-04T14:00:36.333Z,11.25
2023-05-04T14:03:05.469Z,11.90
2023-05-04T14:05:35.353Z,9.55
2023-05-04T14:08:03.016Z,13.75
2023-05-04T14:10:30.791Z,10.52
2023-05-04T14:12:59.069Z,11.80
2023-05-04T14:15:27.637Z,9.38
2023-05-04T14:17:55.428Z,12.48
2023-05-04T14:20:22.969Z,10.52
2023-05-04T14:22:50.383Z,10.75
2023-05-04T14:25:18.208Z,9.80
2023-05-04T14:27:46.317Z,8.82
2023-05-04T14:30:14.171Z,10.50
2023-05-04T14:32:42.115Z,9.85
2023-05-04T14:35:10.947Z,9.80
2023-05-04T14:37:39.647Z,8.52
2023-05-04T14:40:09.421Z,11.18
2023-05-04T14:42:37.498Z,8.90
2023-05-04T14:45:06.921Z,9.00
2023-05-04T14:47:35.129Z,8.30
2023-05-04T14:50:02.654Z,9.45
2023-05-04T14:52:31.573Z,9.10
2023-05-04T14:54:59.276Z,10.85
2023-05-04T14:57:27.635Z,11.55
2023-05-04T14:59:55.172Z,9.45
2023-05-04T15:02:23.063Z,8.20
2023-05-04T15:04:50.632Z,12.65
2023-05-04T15:07:20.831Z,8.95
2023-05-04T15:09:49.031Z,9.90
2023-05-04T15:12:17.590Z,8.50
2023-05-04T15:14:46.120Z,12.60
2023-05-04T15:17:14.865Z,10.52
2023-05-04T15:19:43.754Z,8.45
2023-05-04T15:22:11.306Z,10.32
2023-05-04T15:24:38.996Z,8.93
2023-05-04T15:27:06.596Z,8.55
2023-05-04T15:29:33.999Z,10.07
2023-05-04T15:32:01.718Z,10.48
2023-05-04T15:34:31.625Z,11.68
2023-05-04T15:36:59.002Z,10.15
2023-05-04T15:39:26.714Z,8.15
2023-05-04T15:41:54.132Z,8.18
2023-05-04T15:44:21.693Z,8.73
2023-05-04T15:46:49.876Z,8.57
2023-05-04T15:49:17.341Z,10.98
2023-05-04T15:51:45.033Z,11.23
2023-05-04T15:54:12.747Z,8.85
2023-05-04T15:56:40.243Z,9.27
2023-05-04T15:59:07.738Z,10.02
2023-05-04T16:01:35.610Z,7.97
2023-05-04T16:04:03.456Z,9.00
2023-05-04T16:06:31.315Z,8.85
2023-05-04T16:08:58.704Z,9.88
2023-05-04T16:11:26.352Z,9.45
2023-05-04T16:13:53.752Z,10.13
2023-05-04T16:16:21.368Z,7.32
2023-05-04T16:18:49.051Z,11.25
2023-05-04T16:21:16.675Z,7.82
2023-05-04T16:23:44.182Z,8.60
2023-05-04T16:26:12.090Z,8.55
2023-05-04T16:28:40.563Z,8.85
2023-05-04T16:31:10.308Z,10.40
2023-05-04T16:33:41.549Z,10.38
2023-05-04T16:36:09.429Z,8.20
2023-05-04T16:38:36.808Z,8.57
2023-05-04T16:41:04.575Z,9.68
2023-05-04T16:43:32.071Z,7.72
2023-05-04T16:45:59.612Z,9.27
2023-05-04T16:48:27.304Z,7.85
2023-05-04T16:50:54.744Z,10.13
2023-05-04T16:53:24.025Z,8.00
2023-05-04T16:55:52.361Z,10.48
2023-05-04T16:58:19.713Z,8.77
2023-05-04T17:00:47.112Z,7.80
2023-05-04T17:03:14.844Z,11.77
2023-05-04T17:05:42.261Z,9.13
2023-05-04T17:08:11.376Z,6.97
2023-05-04T17:10:40.021Z,8.18
2023-05-04T17:13:07.667Z,9.52
2023-05-04T17:15:35.126Z,8.50
2023-05-04T17:18:02.813Z,7.28
2023-05-04T17:20:32.036Z,6.10
2023-05-04T17:22:59.693Z,8.80
2023-05-04T17:25:27.480Z,8.40
2023-05-04T17:27:54.934Z,7.68
2023-05-04T17:30:22.486Z,6.70
2023-05-04T17:32:51.139Z,8.38
2023-05-04T17:35:25.041Z,7.43
2023-05-04T17:37:57.929Z,8.68
2023-05-04T17:40:29.581Z,7.28
2023-05-04T17:43:00.828Z,8.57
2023-05-04T17:45:28.389Z,7.43
2023-05-04T17:47:57.161Z,7.80
2023-05-04T17:50:25.616Z,8.73
2023-05-04T17:52:56.497Z,7.35
2023-05-04T17:55:27.737Z,6.65
2023-05-04T17:57:55.470Z,7.20
2023-05-04T18:00:23.688Z,7.90
2023-05-04T18:02:51.840Z,7.75
2023-05-04T18:05:19.874Z,7.43
2023-05-04T18:07:47.432Z,7.00
2023-05-04T18:10:16.105Z,7.28
2023-05-04T18:12:43.496Z,8.70
2023-05-04T18:15:10.972Z,7.78
2023-05-04T18:17:38.961Z,9.55
2023-05-04T18:20:11.371Z,11.27
2023-05-04T18:22:39.248Z,9.57
2023-05-04T18:25:07.348Z,9.07
2023-05-04T18:27:35.564Z,8.95
2023-05-04T18:30:04.454Z,8.68
2023-05-04T18:32:34.043Z,7.43
2023-05-04T18:35:02.472Z,9.65
2023-05-04T18:37:31.912Z,9.40
2023-05-04T18:40:00.082Z,9.00
2023-05-04T18:42:27.872Z,9.82
2023-05-04T18:44:56.282Z,9.55
2023-05-04T18:47:24.116Z,10.73
2023-05-04T18:49:52.901Z,10.50
2023-05-04T18:52:21.870Z,9.23
2023-05-04T18:54:49.736Z,10.82
2023-05-04T18:57:17.416Z,9.25
2023-05-04T18:59:45.272Z,11.95
2023-05-04T19:02:13.520Z,12.27
2023-05-04T19:04:41.517Z,12.32
2023-05-04T19:07:09.940Z,10.90
2023-05-04T19:09:37.895Z,8.85
2023-05-04T19:12:05.664Z,11.38
2023-05-04T19:14:33.627Z,10.95
2023-05-04T19:17:02.291Z,11.05
2023-05-04T19:19:30.651Z,12.43
2023-05-04T19:21:58.655Z,10.15
2023-05-04T19:24:26.405Z,11.45
2023-05-04T19:26:53.947Z,11.43
2023-05-04T19:29:21.351Z,8.80
2023-05-04T19:31:49.068Z,8.93
2023-05-04T19:34:17.701Z,10.05
2023-05-04T19:36:45.373Z,11.32
2023-05-04T19:39:13.364Z,14.20
2023-05-04T19:41:40.720Z,27.30
2023-05-04T19:44:10.060Z,9.90
2023-05-04T19:46:37.787Z,10.73
2023-05-04T19:49:05.196Z,10.23
2023-05-04T19:51:32.915Z,10.23
2023-05-04T19:54:00.950Z,9.32
2023-05-04T19:56:28.460Z,11.73
2023-05-04T19:58:55.850Z,11.02
2023-05-04T20:01:24.944Z,14.98
2023-05-04T20:03:52.893Z,10.38
2023-05-04T20:06:20.313Z,10.73
2023-05-04T20:08:47.797Z,11.15
2023-05-04T20:11:15.660Z,12.65
2023-05-04T20:13:43.044Z,11.07
2023-05-04T20:16:10.456Z,12.25
2023-05-04T20:18:38.143Z,10.65
2023-05-04T20:21:05.583Z,12.63
2023-05-04T20:23:33.153Z,13.40
2023-05-04T20:26:00.921Z,10.88
2023-05-04T20:28:28.297Z,8.65
2023-05-04T20:30:55.759Z,10.85
2023-05-04T20:33:23.554Z,11.45
2023-05-04T20:35:51.059Z,9.70
2023-05-04T20:38:18.441Z,11.15
2023-05-04T20:40:46.068Z,15.18
2023-05-04T20:43:13.429Z,10.70
2023-05-04T20:45:40.801Z,10.82
2023-05-04T20:48:09.067Z,9.20
2023-05-04T20:50:36.673Z,9.98
2023-05-04T20:53:04.350Z,11.15
2023-05-04T20:55:32.016Z,11.57
2023-05-04T20:57:59.386Z,10.60
2023-05-04T21:00:26.769Z,10.15
2023-05-04T21:02:55.757Z,10.00
2023-05-04T21:05:23.220Z,9.95
2023-05-04T21:07:52.240Z,9.70
2023-05-04T21:10:20.401Z,10.38
2023-05-04T21:12:48.023Z,9.88
2023-05-04T21:15:15.514Z,10.75
2023-05-04T21:17:43.242Z,11.73
2023-05-04T21:20:10.915Z,8.75
2023-05-04T21:22:38.434Z,8.80
2023-05-04T21:25:06.998Z,10.95
2023-05-04T21:27:34.371Z,10.93
2023-05-04T21:30:09.818Z,9.30
2023-05-04T21:32:38.253Z,9.45
2023-05-04T21:35:06.729Z,8.93
2023-05-04T21:37:34.148Z,10.25
2023-05-04T21:40:02.172Z,9.75
2023-05-04T21:42:30.002Z,10.18
2023-05-04T21:44:57.657Z,9.38
2023-05-04T21:47:26.310Z,9.30
2023-05-04T21:49:54.663Z,10.30
2023-05-04T21:52:22.644Z,10.30
2023-05-04T21:54:50.312Z,10.93
2023-05-04T21:57:17.808Z,10.60
2023-05-04T21:59:49.613Z,10.73
2023-05-04T22:02:17.605Z,10.88
2023-05-04T22:04:45.592Z,12.20
2023-05-04T22:07:13.018Z,15.38
2023-05-04T22:09:40.410Z,11.68
2023-05-04T22:12:08.217Z,12.30
2023-05-04T22:14:35.639Z,12.80
2023-05-04T22:17:03.177Z,13.82
2023-05-04T22:19:30.927Z,12.73
2023-05-04T22:21:58.360Z,15.07
2023-05-04T22:24:27.043Z,11.27
2023-05-04T22:26:54.760Z,13.48
2023-05-04T22:29:22.678Z,9.68
2023-05-04T22:31:50.056Z,10.05
2023-05-04T22:34:17.658Z,8.60
2023-05-04T22:36:45.012Z,7.97
2023-05-04T22:39:12.450Z,9.18
2023-05-04T22:41:40.107Z,8.23
2023-05-04T22:44:07.508Z,8.40
2023-05-04T22:46:34.994Z,10.85
2023-05-04T22:49:02.719Z,8.20
2023-05-04T22:51:30.262Z,7.85
2023-05-04T22:53:57.597Z,7.37
2023-05-04T22:56:25.923Z,8.63
2023-05-04T22:58:53.270Z,8.32
2023-05-04T23:01:20.736Z,7.87
2023-05-04T23:03:49.061Z,6.68
2023-05-04T23:06:16.500Z,7.72
2023-05-04T23:08:45.373Z,10.05
2023-05-04T23:11:12.994Z,6.87
2023-05-04T23:13:40.321Z,7.22
2023-05-04T23:16:07.964Z,7.93
2023-05-04T23:18:35.702Z,6.03
2023-05-04T23:21:03.242Z,7.15
2023-05-04T23:23:31.586Z,9.90
2023-05-04T23:25:59.397Z,6.97
2023-05-04T23:28:26.735Z,9.32
2023-05-04T23:30:55.763Z,6.80
2023-05-04T23:33:23.563Z,6.70
2023-05-04T23:35:54.328Z,8.10
2023-05-04T23:38:22.879Z,7.10
2023-05-04T23:40:51.646Z,6.82
2023-05-04T23:43:19.012Z,7.72
2023-05-04T23:45:46.414Z,5.43
2023-05-04T23:48:14.075Z,6.80
2023-05-04T23:50:41.540Z,6.93
2023-05-04T23:53:08.890Z,6.37
2023-05-04T23:55:36.468Z,9.45
2023-05-04T23:58:03.808Z,9.68
